createdAt,value
2019-02-11T00:00:54.078Z,986.27
2019-02-11T00:01:54.071Z,986.28
2019-02-11T00:02:54.062Z,986.27
2019-02-11T00:03:59.555Z,986.29
2019-02-11T00:04:55.067Z,986.33
2019-02-11T00:05:54.068Z,986.32
2019-02-11T00:06:54.018Z,986.32
2019-02-11T00:07:54.002Z,986.32
2019-02-11T00:08:54.023Z,986.29
2019-02-11T00:09:53.984Z,986.30
2019-02-11T00:10:54.012Z,986.40
2019-02-11T00:11:53.965Z,986.39
2019-02-11T00:12:53.952Z,986.40
2019-02-11T00:13:53.942Z,986.50
2019-02-11T00:14:53.927Z,986.50
2019-02-11T00:15:53.921Z,986.57
2019-02-11T00:16:54.366Z,986.61
2019-02-11T00:17:53.899Z,986.66
2019-02-11T00:18:53.891Z,986.69
2019-02-11T00:19:53.877Z,986.62
2019-02-11T00:20:53.862Z,986.70
2019-02-11T00:21:53.918Z,986.70
2019-02-11T00:22:53.846Z,986.74
2019-02-11T00:23:53.829Z,986.71
2019-02-11T00:24:53.822Z,986.81
2019-02-11T00:25:53.811Z,986.86
2019-02-11T00:26:53.799Z,986.84
2019-02-11T00:27:53.827Z,986.89
2019-02-11T00:28:53.777Z,986.87
2019-02-11T00:29:53.761Z,986.93
2019-02-11T00:30:53.755Z,986.99
2019-02-11T00:31:53.742Z,986.97
2019-02-11T00:32:53.813Z,986.99
2019-02-11T00:33:53.748Z,987.06
2019-02-11T00:34:53.713Z,986.99
2019-02-11T00:35:53.702Z,986.98
2019-02-11T00:36:53.689Z,986.98
2019-02-11T00:37:53.688Z,987.03
2019-02-11T00:38:53.695Z,987.04
2019-02-11T00:39:53.655Z,987.08
2019-02-11T00:40:53.639Z,987.13
2019-02-11T00:41:53.637Z,987.08
2019-02-11T00:42:53.622Z,987.14
2019-02-11T00:43:53.653Z,987.11
2019-02-11T00:44:53.597Z,987.19
2019-02-11T00:45:53.587Z,987.16
2019-02-11T00:46:53.573Z,987.18
2019-02-11T00:47:53.571Z,987.19
2019-02-11T00:48:53.592Z,987.24
2019-02-11T00:49:53.574Z,987.28
2019-02-11T00:50:53.556Z,987.33
2019-02-11T00:51:53.523Z,987.37
2019-02-11T00:52:53.507Z,987.32
2019-02-11T00:53:53.503Z,987.37
2019-02-11T00:54:53.503Z,987.42
2019-02-11T00:55:53.473Z,987.34
2019-02-11T00:56:53.463Z,987.40
2019-02-11T00:57:53.458Z,987.39
2019-02-11T00:58:53.447Z,987.49
2019-02-11T00:59:53.453Z,987.35
2019-02-11T01:00:53.434Z,987.41
2019-02-11T01:01:53.410Z,987.48
2019-02-11T01:02:53.403Z,987.58
2019-02-11T01:03:53.395Z,987.50
2019-02-11T01:04:53.384Z,987.56
2019-02-11T01:05:53.380Z,987.61
2019-02-11T01:06:53.362Z,987.64
2019-02-11T01:07:53.350Z,987.67
2019-02-11T01:08:53.336Z,987.67
2019-02-11T01:09:53.327Z,987.72
2019-02-11T01:10:53.377Z,987.66
2019-02-11T01:11:53.304Z,987.68
2019-02-11T01:12:53.290Z,987.75
2019-02-11T01:13:53.283Z,987.75
2019-02-11T01:14:53.268Z,987.81
2019-02-11T01:15:53.257Z,987.76
2019-02-11T01:16:53.277Z,987.85
2019-02-11T01:17:53.238Z,987.80
2019-02-11T01:18:53.233Z,987.88
2019-02-11T01:19:53.217Z,987.93
2019-02-11T01:20:53.208Z,987.94
2019-02-11T01:21:53.224Z,987.98
2019-02-11T01:22:53.189Z,987.95
2019-02-11T01:23:53.170Z,987.97
2019-02-11T01:24:53.167Z,987.96
2019-02-11T01:25:53.155Z,987.99
2019-02-11T01:26:53.175Z,987.93
2019-02-11T01:27:53.186Z,988.00
2019-02-11T01:28:53.122Z,988.12
2019-02-11T01:29:53.105Z,988.11
2019-02-11T01:30:53.100Z,988.16
2019-02-11T01:31:53.089Z,988.21
2019-02-11T01:32:53.126Z,988.17
2019-02-11T01:33:53.068Z,988.19
2019-02-11T01:34:53.057Z,988.28
2019-02-11T01:35:53.041Z,988.20
2019-02-11T01:36:53.036Z,988.30
2019-02-11T01:37:53.023Z,988.27
2019-02-11T01:38:53.022Z,988.30
2019-02-11T01:39:52.997Z,988.37
2019-02-11T01:40:52.992Z,988.41
2019-02-11T01:41:52.976Z,988.44
2019-02-11T01:42:52.971Z,988.42
2019-02-11T01:43:53.020Z,988.48
2019-02-11T01:44:52.944Z,988.56
2019-02-11T01:45:52.931Z,988.55
2019-02-11T01:46:52.922Z,988.54
2019-02-11T01:47:52.911Z,988.57
2019-02-11T01:48:52.905Z,988.58
2019-02-11T01:49:52.920Z,988.56
2019-02-11T01:50:52.882Z,988.61
2019-02-11T01:51:52.866Z,988.64
2019-02-11T01:52:52.858Z,988.65
2019-02-11T01:53:52.851Z,988.70
2019-02-11T01:54:52.866Z,988.62
2019-02-11T01:55:52.823Z,988.65
2019-02-11T01:56:52.817Z,988.75
2019-02-11T01:57:52.805Z,988.79
2019-02-11T01:58:52.800Z,988.83
2019-02-11T01:59:52.812Z,988.87
2019-02-11T02:00:52.775Z,988.89
2019-02-11T02:01:52.760Z,988.85
2019-02-11T02:02:52.751Z,988.90
2019-02-11T02:03:52.741Z,988.91
2019-02-11T02:04:52.752Z,988.92
2019-02-11T02:05:52.747Z,988.89
2019-02-11T02:06:52.705Z,988.94
2019-02-11T02:07:52.697Z,988.90
2019-02-11T02:08:52.683Z,988.89
2019-02-11T02:09:52.675Z,988.96
2019-02-11T02:10:52.706Z,988.94
2019-02-11T02:11:52.651Z,988.97
2019-02-11T02:12:52.643Z,988.97
2019-02-11T02:13:52.631Z,989.02
2019-02-11T02:14:52.678Z,988.96
2019-02-11T02:15:52.607Z,988.99
2019-02-11T02:16:52.638Z,989.05
2019-02-11T02:17:52.583Z,989.10
2019-02-11T02:18:52.579Z,989.10
2019-02-11T02:19:52.564Z,989.17
2019-02-11T02:20:52.552Z,989.12
2019-02-11T02:21:52.544Z,989.18
2019-02-11T02:22:52.544Z,989.17
2019-02-11T02:23:52.525Z,989.16
2019-02-11T02:24:52.511Z,989.24
2019-02-11T02:25:52.497Z,989.32
2019-02-11T02:26:52.497Z,989.34
2019-02-11T02:27:52.475Z,989.28
2019-02-11T02:28:52.466Z,989.40
2019-02-11T02:29:52.454Z,989.43
2019-02-11T02:30:52.445Z,989.50
2019-02-11T02:31:52.501Z,989.52
2019-02-11T02:32:52.427Z,989.53
2019-02-11T02:33:52.411Z,989.57
2019-02-11T02:34:52.405Z,989.62
2019-02-11T02:35:52.392Z,989.63
2019-02-11T02:36:52.378Z,989.67
2019-02-11T02:37:52.396Z,989.71
2019-02-11T02:38:52.362Z,989.71
2019-02-11T02:39:52.354Z,989.73
2019-02-11T02:40:52.337Z,989.76
2019-02-11T02:41:52.328Z,989.83
2019-02-11T02:42:52.379Z,989.88
2019-02-11T02:43:55.762Z,989.89
2019-02-11T02:44:52.292Z,989.91
2019-02-11T02:45:52.286Z,989.91
2019-02-11T02:46:52.268Z,989.93
2019-02-11T02:47:52.262Z,990.03
2019-02-11T02:48:52.265Z,990.04
2019-02-11T02:49:52.248Z,990.05
2019-02-11T02:50:52.231Z,990.07
2019-02-11T02:51:52.221Z,990.07
2019-02-11T02:52:52.211Z,990.13
2019-02-11T02:53:52.235Z,990.12
2019-02-11T02:54:52.188Z,990.18
2019-02-11T02:55:52.173Z,990.23
2019-02-11T02:56:52.167Z,990.29
2019-02-11T02:57:52.149Z,990.26
2019-02-11T02:58:52.160Z,990.32
2019-02-11T02:59:52.138Z,990.35
2019-02-11T03:00:52.125Z,990.46
2019-02-11T03:01:52.107Z,990.43
2019-02-11T03:02:52.101Z,990.47
2019-02-11T03:03:52.148Z,990.47
2019-02-11T03:04:52.074Z,990.46
2019-02-11T03:05:53.004Z,990.49
2019-02-11T03:06:52.057Z,990.57
2019-02-11T03:07:52.042Z,990.56
2019-02-11T03:08:52.037Z,990.58
2019-02-11T03:09:52.034Z,990.59
2019-02-11T03:10:52.046Z,990.61
2019-02-11T03:11:52.004Z,990.70
2019-02-11T03:12:51.991Z,990.69
2019-02-11T03:13:51.976Z,990.70
2019-02-11T03:14:51.972Z,990.79
2019-02-11T03:15:52.000Z,990.79
2019-02-11T03:16:51.949Z,990.82
2019-02-11T03:17:51.938Z,990.87
2019-02-11T03:18:51.951Z,990.95
2019-02-11T03:19:51.912Z,990.91
2019-02-11T03:20:51.934Z,990.96
2019-02-11T03:21:51.890Z,991.02
2019-02-11T03:22:51.881Z,991.02
2019-02-11T03:23:51.868Z,991.09
2019-02-11T03:24:51.865Z,991.13
2019-02-11T03:25:51.852Z,991.11
2019-02-11T03:26:51.870Z,991.14
2019-02-11T03:27:51.823Z,991.15
2019-02-11T03:28:51.815Z,991.22
2019-02-11T03:29:51.809Z,991.18
2019-02-11T03:30:51.793Z,991.30
2019-02-11T03:31:51.814Z,991.34
2019-02-11T03:32:51.771Z,991.32
2019-02-11T03:33:51.768Z,991.38
2019-02-11T03:34:51.753Z,991.47
2019-02-11T03:35:51.741Z,991.42
2019-02-11T03:36:51.726Z,991.45
2019-02-11T03:37:51.759Z,991.43
2019-02-11T03:38:51.709Z,991.52
2019-02-11T03:39:51.695Z,991.58
2019-02-11T03:40:51.688Z,991.60
2019-02-11T03:41:51.676Z,991.62
2019-02-11T03:42:51.690Z,991.65
2019-02-11T03:43:51.655Z,991.74
2019-02-11T03:44:51.641Z,991.72
2019-02-11T03:45:51.633Z,991.73
2019-02-11T03:46:51.625Z,991.84
2019-02-11T03:47:51.641Z,991.83
2019-02-11T03:48:51.616Z,991.88
2019-02-11T03:49:51.589Z,991.91
2019-02-11T03:50:51.578Z,991.83
2019-02-11T03:51:51.570Z,991.93
2019-02-11T03:52:51.580Z,992.02
2019-02-11T03:53:51.549Z,991.98
2019-02-11T03:54:51.533Z,992.05
2019-02-11T03:55:51.562Z,992.09
2019-02-11T03:56:51.507Z,992.06
2019-02-11T03:57:51.502Z,992.08
2019-02-11T03:58:51.510Z,992.16
2019-02-11T03:59:51.482Z,992.21
2019-02-11T04:00:51.479Z,992.24
2019-02-11T04:01:51.453Z,992.27
2019-02-11T04:02:51.446Z,992.26
2019-02-11T04:03:51.431Z,992.42
2019-02-11T04:04:51.422Z,992.27
2019-02-11T04:05:51.426Z,992.35
2019-02-11T04:06:51.400Z,992.40
2019-02-11T04:07:51.387Z,992.50
2019-02-11T04:08:51.393Z,992.44
2019-02-11T04:09:51.367Z,992.49
2019-02-11T04:10:51.391Z,992.50
2019-02-11T04:11:51.350Z,992.66
2019-02-11T04:12:51.341Z,992.59
2019-02-11T04:13:51.329Z,992.62
2019-02-11T04:14:51.327Z,992.70
2019-02-11T04:15:51.334Z,992.73
2019-02-11T04:16:51.297Z,992.72
2019-02-11T04:17:51.279Z,992.79
2019-02-11T04:18:51.277Z,992.78
2019-02-11T04:19:51.263Z,992.92
2019-02-11T04:20:51.338Z,992.88
2019-02-11T04:21:51.255Z,992.89
2019-02-11T04:22:51.225Z,992.94
2019-02-11T04:23:51.219Z,992.96
2019-02-11T04:24:51.203Z,992.98
2019-02-11T04:25:51.214Z,992.93
2019-02-11T04:26:51.197Z,993.00
2019-02-11T04:27:51.172Z,993.00
2019-02-11T04:28:51.161Z,993.04
2019-02-11T04:29:51.156Z,993.03
2019-02-11T04:30:51.144Z,993.11
2019-02-11T04:31:51.150Z,993.14
2019-02-11T04:32:51.121Z,993.14
2019-02-11T04:33:51.111Z,993.15
2019-02-11T04:34:51.095Z,993.16
2019-02-11T04:35:51.089Z,993.19
2019-02-11T04:36:51.099Z,993.17
2019-02-11T04:37:51.093Z,993.25
2019-02-11T04:38:51.052Z,993.26
2019-02-11T04:39:51.046Z,993.26
2019-02-11T04:40:51.030Z,993.30
2019-02-11T04:41:51.024Z,993.31
2019-02-11T04:42:51.029Z,993.34
2019-02-11T04:43:50.997Z,993.37
2019-02-11T04:44:50.986Z,993.38
2019-02-11T04:45:50.981Z,993.41
2019-02-11T04:46:50.970Z,993.50
2019-02-11T04:47:50.974Z,993.56
2019-02-11T04:48:50.948Z,993.51
2019-02-11T04:49:50.937Z,993.63
2019-02-11T04:50:50.921Z,993.63
2019-02-11T04:51:50.914Z,993.66
2019-02-11T04:52:50.916Z,993.66
2019-02-11T04:53:50.931Z,993.75
2019-02-11T04:54:50.883Z,993.73
2019-02-11T04:55:50.868Z,993.84
2019-02-11T04:56:50.862Z,993.84
2019-02-11T04:57:50.852Z,993.82
2019-02-11T04:58:50.865Z,993.86
2019-02-11T04:59:50.823Z,993.87
2019-02-11T05:00:50.818Z,993.92
2019-02-11T05:01:50.800Z,993.95
2019-02-11T05:02:50.794Z,994.09
2019-02-11T05:03:50.846Z,993.95
2019-02-11T05:04:50.769Z,994.02
2019-02-11T05:05:50.757Z,994.03
2019-02-11T05:06:50.746Z,994.10
2019-02-11T05:07:50.735Z,994.11
2019-02-11T05:08:50.727Z,994.11
2019-02-11T05:09:50.725Z,994.14
2019-02-11T05:10:50.704Z,994.13
2019-02-11T05:11:50.701Z,994.07
2019-02-11T05:12:50.686Z,994.09
2019-02-11T05:13:50.670Z,994.13
2019-02-11T05:14:50.695Z,994.13
2019-02-11T05:15:50.656Z,994.16
2019-02-11T05:16:50.638Z,994.21
2019-02-11T05:17:50.631Z,994.24
2019-02-11T05:18:50.622Z,994.19
2019-02-11T05:19:50.631Z,994.26
2019-02-11T05:20:50.597Z,994.18
2019-02-11T05:21:50.589Z,994.27
2019-02-11T05:22:50.575Z,994.23
2019-02-11T05:23:50.567Z,994.28
2019-02-11T05:24:50.593Z,994.32
2019-02-11T05:25:50.545Z,994.36
2019-02-11T05:26:50.534Z,994.41
2019-02-11T05:27:50.524Z,994.41
2019-02-11T05:28:50.509Z,994.50
2019-02-11T05:29:50.502Z,994.59
2019-02-11T05:30:50.517Z,994.56
2019-02-11T05:31:50.481Z,994.50
2019-02-11T05:32:50.474Z,994.53
2019-02-11T05:33:50.494Z,994.50
2019-02-11T05:34:50.447Z,994.59
2019-02-11T05:35:50.466Z,994.62
2019-02-11T05:36:50.446Z,994.69
2019-02-11T05:37:50.412Z,994.70
2019-02-11T05:38:50.404Z,994.60
2019-02-11T05:39:50.421Z,994.70
2019-02-11T05:40:50.379Z,994.71
2019-02-11T05:41:50.366Z,994.74
2019-02-11T05:42:50.412Z,994.75
2019-02-11T05:43:50.349Z,994.70
2019-02-11T05:44:53.970Z,994.84
2019-02-11T05:45:50.327Z,994.81
2019-02-11T05:46:50.378Z,994.80
2019-02-11T05:47:50.306Z,994.91
2019-02-11T05:48:50.291Z,994.92
2019-02-11T05:49:50.280Z,994.93
2019-02-11T05:50:50.269Z,994.98
2019-02-11T05:51:50.264Z,994.96
2019-02-11T05:52:50.294Z,994.99
2019-02-11T05:53:50.237Z,995.06
2019-02-11T05:54:50.231Z,995.04
2019-02-11T05:55:50.219Z,995.10
2019-02-11T05:56:50.251Z,995.15
2019-02-11T05:57:50.197Z,995.23
2019-02-11T05:58:50.186Z,995.24
2019-02-11T05:59:50.205Z,995.22
2019-02-11T06:00:50.167Z,995.25
2019-02-11T06:01:50.149Z,995.24
2019-02-11T06:02:50.219Z,995.34
2019-02-11T06:03:50.133Z,995.31
2019-02-11T06:04:50.123Z,995.39
2019-02-11T06:05:50.107Z,995.38
2019-02-11T06:06:50.096Z,995.46
2019-02-11T06:07:50.091Z,995.41
2019-02-11T06:08:50.099Z,995.48
2019-02-11T06:09:50.064Z,995.54
2019-02-11T06:10:50.052Z,995.48
2019-02-11T06:11:50.047Z,995.49
2019-02-11T06:12:50.033Z,995.49
2019-02-11T06:13:50.031Z,995.48
2019-02-11T06:14:50.014Z,995.58
2019-02-11T06:15:49.999Z,995.57
2019-02-11T06:16:49.987Z,995.63
2019-02-11T06:17:49.983Z,995.66
2019-02-11T06:18:50.029Z,995.63
2019-02-11T06:19:49.957Z,995.71
2019-02-11T06:20:49.944Z,995.71
2019-02-11T06:21:49.941Z,995.74
2019-02-11T06:22:49.933Z,995.77
2019-02-11T06:23:49.913Z,995.75
2019-02-11T06:24:49.934Z,995.83
2019-02-11T06:25:49.896Z,995.86
2019-02-11T06:26:49.882Z,995.86
2019-02-11T06:27:49.877Z,995.92
2019-02-11T06:28:49.859Z,995.91
2019-02-11T06:29:49.883Z,996.00
2019-02-11T06:30:49.837Z,996.00
2019-02-11T06:31:49.833Z,995.93
2019-02-11T06:32:49.822Z,995.97
2019-02-11T06:33:49.810Z,995.95
2019-02-11T06:34:49.800Z,995.97
2019-02-11T06:35:49.820Z,996.04
2019-02-11T06:36:49.775Z,996.07
2019-02-11T06:37:49.762Z,996.01
2019-02-11T06:38:49.756Z,996.06
2019-02-11T06:39:49.742Z,996.07
2019-02-11T06:40:49.761Z,996.09
2019-02-11T06:41:49.752Z,996.12
2019-02-11T06:42:49.710Z,996.16
2019-02-11T06:43:49.697Z,996.13
2019-02-11T06:44:49.687Z,996.15
2019-02-11T06:45:49.681Z,996.18
2019-02-11T06:46:49.680Z,996.19
2019-02-11T06:47:49.652Z,996.24
2019-02-11T06:48:49.655Z,996.30
2019-02-11T06:49:49.631Z,996.37
2019-02-11T06:50:49.631Z,996.38
2019-02-11T06:51:49.654Z,996.43
2019-02-11T06:52:49.598Z,996.58
2019-02-11T06:53:49.592Z,996.48
2019-02-11T06:54:49.581Z,996.53
2019-02-11T06:55:49.565Z,996.59
2019-02-11T06:56:49.586Z,996.58
2019-02-11T06:57:49.587Z,996.60
2019-02-11T06:58:49.533Z,996.67
2019-02-11T06:59:49.524Z,996.62
2019-02-11T07:00:49.519Z,996.70
2019-02-11T07:01:49.500Z,996.70
2019-02-11T07:02:49.494Z,996.72
2019-02-11T07:03:49.513Z,996.72
2019-02-11T07:04:49.473Z,996.81
2019-02-11T07:05:49.457Z,996.72
2019-02-11T07:06:49.449Z,996.78
2019-02-11T07:07:49.440Z,996.87
2019-02-11T07:08:49.442Z,996.83
2019-02-11T07:09:49.436Z,996.86
2019-02-11T07:10:55.409Z,996.93
2019-02-11T07:11:50.406Z,996.85
2019-02-11T07:12:49.420Z,996.92
2019-02-11T07:13:49.378Z,996.95
2019-02-11T07:14:49.369Z,996.94
2019-02-11T07:15:49.353Z,996.99
2019-02-11T07:16:49.348Z,997.00
2019-02-11T07:17:49.340Z,997.07
2019-02-11T07:18:49.314Z,997.05
2019-02-11T07:19:49.344Z,997.10
2019-02-11T07:20:49.298Z,997.16
2019-02-11T07:21:49.282Z,997.21
2019-02-11T07:22:49.276Z,997.22
2019-02-11T07:23:49.261Z,997.19
2019-02-11T07:24:49.251Z,997.23
2019-02-11T07:25:49.254Z,997.15
2019-02-11T07:26:49.232Z,997.17
2019-02-11T07:27:49.234Z,997.24
2019-02-11T07:28:49.210Z,997.30
2019-02-11T07:29:49.200Z,997.21
2019-02-11T07:30:49.189Z,997.37
2019-02-11T07:31:49.182Z,997.44
2019-02-11T07:32:49.161Z,997.36
2019-02-11T07:33:49.149Z,997.40
2019-02-11T07:34:49.145Z,997.42
2019-02-11T07:35:49.195Z,997.49
2019-02-11T07:36:49.137Z,997.51
2019-02-11T07:37:49.110Z,997.50
2019-02-11T07:38:49.099Z,997.60
2019-02-11T07:39:49.091Z,997.63
2019-02-11T07:40:49.080Z,997.63
2019-02-11T07:41:49.073Z,997.68
2019-02-11T07:42:49.060Z,997.57
2019-02-11T07:43:49.041Z,997.70
2019-02-11T07:44:49.030Z,997.75
2019-02-11T07:45:49.020Z,997.72
2019-02-11T07:46:49.041Z,997.76
2019-02-11T07:47:49.018Z,997.79
2019-02-11T07:48:48.990Z,997.85
2019-02-11T07:49:48.975Z,997.80
2019-02-11T07:50:48.964Z,997.80
2019-02-11T07:51:48.974Z,997.82
2019-02-11T07:52:48.973Z,997.87
2019-02-11T07:53:48.936Z,997.84
2019-02-11T07:54:48.918Z,997.85
2019-02-11T07:55:48.912Z,997.84
2019-02-11T07:56:48.933Z,997.89
2019-02-11T07:57:48.917Z,997.87
2019-02-11T07:58:48.882Z,997.99
2019-02-11T07:59:48.863Z,997.98
2019-02-11T08:00:48.853Z,998.06
2019-02-11T08:01:48.953Z,997.91
2019-02-11T08:02:48.836Z,997.99
2019-02-11T08:03:48.822Z,998.03
2019-02-11T08:04:48.815Z,998.04
2019-02-11T08:05:48.799Z,998.07
2019-02-11T08:06:48.790Z,997.97
2019-02-11T08:07:48.789Z,998.06
2019-02-11T08:08:48.797Z,998.03
2019-02-11T08:09:48.758Z,998.02
2019-02-11T08:10:48.747Z,998.09
2019-02-11T08:11:48.736Z,998.03
2019-02-11T08:12:48.753Z,998.05
2019-02-11T08:13:48.715Z,998.16
2019-02-11T08:14:48.701Z,998.13
2019-02-11T08:15:48.694Z,998.09
2019-02-11T08:16:48.677Z,998.08
2019-02-11T08:17:48.698Z,998.10
2019-02-11T08:18:48.653Z,998.09
2019-02-11T08:19:48.665Z,998.14
2019-02-11T08:20:48.640Z,998.13
2019-02-11T08:21:48.621Z,998.19
2019-02-11T08:22:48.611Z,998.22
2019-02-11T08:23:48.665Z,998.20
2019-02-11T08:24:48.595Z,998.21
2019-02-11T08:25:48.586Z,998.14
2019-02-11T08:26:48.574Z,998.26
2019-02-11T08:27:48.560Z,998.25
2019-02-11T08:28:48.554Z,998.38
2019-02-11T08:29:48.557Z,998.35
2019-02-11T08:30:48.523Z,998.34
2019-02-11T08:31:48.520Z,998.35
2019-02-11T08:32:48.511Z,998.38
2019-02-11T08:33:48.489Z,998.43
2019-02-11T08:34:48.533Z,998.47
2019-02-11T08:35:48.468Z,998.52
2019-02-11T08:36:48.457Z,998.57
2019-02-11T08:37:48.445Z,998.56
2019-02-11T08:38:48.440Z,998.57
2019-02-11T08:39:48.431Z,998.58
2019-02-11T08:40:48.447Z,998.63
2019-02-11T08:41:48.408Z,998.64
2019-02-11T08:42:48.392Z,998.72
2019-02-11T08:43:48.389Z,998.65
2019-02-11T08:44:48.369Z,998.72
2019-02-11T08:45:48.425Z,998.79
2019-02-11T08:46:48.348Z,998.79
2019-02-11T08:47:48.336Z,998.88
2019-02-11T08:48:48.325Z,998.87
2019-02-11T08:49:48.316Z,998.93
2019-02-11T08:50:48.304Z,998.91
2019-02-11T08:51:48.325Z,998.99
2019-02-11T08:52:48.287Z,999.02
2019-02-11T08:53:48.302Z,998.98
2019-02-11T08:54:48.259Z,998.93
2019-02-11T08:55:48.255Z,999.05
2019-02-11T08:56:48.334Z,999.07
2019-02-11T08:57:48.226Z,999.16
2019-02-11T08:58:48.218Z,999.13
2019-02-11T08:59:48.208Z,999.15
2019-02-11T09:00:48.197Z,999.18
2019-02-11T09:01:48.183Z,999.20
2019-02-11T09:02:48.203Z,999.27
2019-02-11T09:03:48.163Z,999.29
2019-02-11T09:04:48.155Z,999.31
2019-02-11T09:05:48.159Z,999.26
2019-02-11T09:06:48.133Z,999.29
2019-02-11T09:07:48.454Z,999.32
2019-02-11T09:08:48.110Z,999.29
2019-02-11T09:09:48.100Z,999.36
2019-02-11T09:10:48.089Z,999.42
2019-02-11T09:11:48.074Z,999.47
2019-02-11T09:12:48.129Z,999.42
2019-02-11T09:13:48.055Z,999.51
2019-02-11T09:14:48.045Z,999.53
2019-02-11T09:15:55.246Z,999.63
2019-02-11T09:16:49.018Z,999.63
2019-02-11T09:17:48.012Z,999.63
2019-02-11T09:18:48.019Z,999.67
2019-02-11T09:19:47.984Z,999.71
2019-02-11T09:20:47.976Z,999.66
2019-02-11T09:21:48.003Z,999.67
2019-02-11T09:22:47.954Z,999.79
2019-02-11T09:23:48.009Z,999.83
2019-02-11T09:24:47.938Z,999.78
2019-02-11T09:25:47.926Z,999.96
2019-02-11T09:26:47.910Z,999.88
2019-02-11T09:27:47.905Z,999.92
2019-02-11T09:28:47.888Z,999.90
2019-02-11T09:29:47.945Z,999.95
2019-02-11T09:30:47.878Z,1000.08
2019-02-11T09:31:47.855Z,999.98
2019-02-11T09:32:47.844Z,1000.05
2019-02-11T09:33:47.834Z,1000.05
2019-02-11T09:34:47.827Z,1000.02
2019-02-11T09:35:47.824Z,1000.11
2019-02-11T09:36:47.805Z,1000.17
2019-02-11T09:37:47.791Z,1000.15
2019-02-11T09:38:47.780Z,1000.11
2019-02-11T09:39:47.776Z,1000.16
2019-02-11T09:40:47.778Z,1000.17
2019-02-11T09:41:47.778Z,1000.19
2019-02-11T09:42:47.740Z,1000.30
2019-02-11T09:43:47.731Z,1000.29
2019-02-11T09:44:47.715Z,1000.35
2019-02-11T09:45:47.735Z,1000.29
2019-02-11T09:46:47.696Z,1000.33
2019-02-11T09:47:47.680Z,1000.32
2019-02-11T09:48:47.674Z,1000.33
2019-02-11T09:49:47.661Z,1000.40
2019-02-11T09:50:47.677Z,1000.43
2019-02-11T09:51:47.643Z,1000.33
2019-02-11T09:52:47.630Z,1000.48
2019-02-11T09:53:47.625Z,1000.40
2019-02-11T09:54:47.616Z,1000.40
2019-02-11T09:55:47.593Z,1000.41
2019-02-11T09:56:47.675Z,1000.47
2019-02-11T09:57:47.576Z,1000.52
2019-02-11T09:58:47.569Z,1000.42
2019-02-11T09:59:47.551Z,1000.50
2019-02-11T10:00:47.545Z,1000.53
2019-02-11T10:01:47.535Z,1000.52
2019-02-11T10:02:47.564Z,1000.53
2019-02-11T10:03:47.511Z,1000.54
2019-02-11T10:04:47.498Z,1000.55
2019-02-11T10:05:47.497Z,1000.59
2019-02-11T10:06:47.511Z,1000.56
2019-02-11T10:07:47.476Z,1000.55
2019-02-11T10:08:47.533Z,1000.70
2019-02-11T10:09:47.960Z,1000.62
2019-02-11T10:10:47.462Z,1000.67
2019-02-11T10:11:47.422Z,1000.71
2019-02-11T10:12:47.426Z,1000.65
2019-02-11T10:13:47.430Z,1000.76
2019-02-11T10:14:47.395Z,1000.71
2019-02-11T10:15:47.376Z,1000.73
2019-02-11T10:16:47.371Z,1000.71
2019-02-11T10:17:47.357Z,1000.70
2019-02-11T10:18:47.415Z,1000.82
2019-02-11T10:19:47.357Z,1000.72
2019-02-11T10:20:47.329Z,1000.90
2019-02-11T10:21:47.313Z,1000.89
2019-02-11T10:22:47.305Z,1000.96
2019-02-11T10:23:47.356Z,1000.84
2019-02-11T10:24:47.278Z,1001.03
2019-02-11T10:25:47.274Z,1000.92
2019-02-11T10:26:47.269Z,1000.96
2019-02-11T10:27:47.247Z,1000.98
2019-02-11T10:28:47.238Z,1001.08
2019-02-11T10:29:47.255Z,1000.94
2019-02-11T10:30:47.236Z,1001.03
2019-02-11T10:31:47.202Z,1001.00
2019-02-11T10:32:47.199Z,1001.00
2019-02-11T10:33:47.187Z,1001.03
2019-02-11T10:34:47.230Z,1000.89
2019-02-11T10:35:47.163Z,1000.99
2019-02-11T10:36:47.154Z,1001.07
2019-02-11T10:37:47.136Z,1001.12
2019-02-11T10:38:47.126Z,1000.98
2019-02-11T10:39:47.117Z,1001.00
2019-02-11T10:40:47.147Z,1001.11
2019-02-11T10:41:47.098Z,1001.16
2019-02-11T10:42:47.086Z,1001.22
2019-02-11T10:43:47.075Z,1001.29
2019-02-11T10:44:47.064Z,1001.23
2019-02-11T10:45:47.050Z,1001.16
2019-02-11T10:46:47.070Z,1001.13
2019-02-11T10:47:47.035Z,1001.21
2019-02-11T10:48:47.023Z,1001.21
2019-02-11T10:49:47.004Z,1001.24
2019-02-11T10:50:47.000Z,1001.27
2019-02-11T10:51:46.989Z,1001.35
2019-02-11T10:52:47.003Z,1001.20
2019-02-11T10:53:46.965Z,1001.37
2019-02-11T10:54:46.955Z,1001.25
2019-02-11T10:55:46.944Z,1001.28
2019-02-11T10:56:46.935Z,1001.32
2019-02-11T10:57:46.939Z,1001.22
2019-02-11T10:58:46.912Z,1001.32
2019-02-11T10:59:46.894Z,1001.30
2019-02-11T11:00:46.892Z,1001.35
2019-02-11T11:01:46.873Z,1001.42
2019-02-11T11:02:46.911Z,1001.34
2019-02-11T11:03:46.855Z,1001.35
2019-02-11T11:04:46.841Z,1001.36
2019-02-11T11:05:46.835Z,1001.45
2019-02-11T11:06:46.824Z,1001.46
2019-02-11T11:07:46.812Z,1001.51
2019-02-11T11:08:46.828Z,1001.47
2019-02-11T11:09:46.788Z,1001.51
2019-02-11T11:10:46.775Z,1001.52
2019-02-11T11:11:46.762Z,1001.61
2019-02-11T11:12:46.756Z,1001.66
2019-02-11T11:13:46.774Z,1001.62
2019-02-11T11:14:46.821Z,1001.65
2019-02-11T11:15:46.718Z,1001.74
2019-02-11T11:16:46.708Z,1001.77
2019-02-11T11:17:46.695Z,1001.63
2019-02-11T11:18:46.687Z,1001.79
2019-02-11T11:19:46.679Z,1001.81
2019-02-11T11:20:46.686Z,1001.79
2019-02-11T11:21:46.653Z,1001.77
2019-02-11T11:22:46.645Z,1001.83
2019-02-11T11:23:46.630Z,1001.86
2019-02-11T11:24:46.647Z,1001.95
2019-02-11T11:25:46.609Z,1001.95
2019-02-11T11:26:46.599Z,1001.96
2019-02-11T11:27:46.593Z,1001.92
2019-02-11T11:28:46.575Z,1001.92
2019-02-11T11:29:46.565Z,1001.92
2019-02-11T11:30:46.564Z,1001.93
2019-02-11T11:31:46.547Z,1001.96
2019-02-11T11:32:46.531Z,1002.06
2019-02-11T11:33:46.521Z,1001.96
2019-02-11T11:34:46.509Z,1001.95
2019-02-11T11:35:46.530Z,1001.96
2019-02-11T11:36:46.488Z,1001.98
2019-02-11T11:37:46.476Z,1001.99
2019-02-11T11:38:46.469Z,1001.99
2019-02-11T11:39:46.454Z,1002.06
2019-02-11T11:40:46.478Z,1002.02
2019-02-11T11:41:46.433Z,1002.07
2019-02-11T11:42:46.427Z,1002.07
2019-02-11T11:43:46.418Z,1001.96
2019-02-11T11:44:46.398Z,1002.08
2019-02-11T11:45:46.400Z,1002.10
2019-02-11T11:46:47.302Z,1002.13
2019-02-11T11:47:46.367Z,1002.14
2019-02-11T11:48:46.361Z,1002.19
2019-02-11T11:49:46.360Z,1002.22
2019-02-11T11:50:46.338Z,1002.17
2019-02-11T11:51:46.390Z,1002.25
2019-02-11T11:52:46.319Z,1002.24
2019-02-11T11:53:46.314Z,1002.26
2019-02-11T11:54:46.291Z,1002.34
2019-02-11T11:55:46.285Z,1002.37
2019-02-11T11:56:46.279Z,1002.28
2019-02-11T11:57:46.286Z,1002.36
2019-02-11T11:58:46.247Z,1002.43
2019-02-11T11:59:46.237Z,1002.39
2019-02-11T12:00:46.239Z,1002.52
2019-02-11T12:01:46.228Z,1002.52
2019-02-11T12:03:00.475Z,1002.54
2019-02-11T12:03:47.197Z,1002.46
2019-02-11T12:04:46.220Z,1002.51
2019-02-11T12:05:46.172Z,1002.45
2019-02-11T12:06:46.163Z,1002.47
2019-02-11T12:07:46.159Z,1002.56
2019-02-11T12:08:46.173Z,1002.58
2019-02-11T12:09:46.127Z,1002.59
2019-02-11T12:10:46.118Z,1002.55
2019-02-11T12:11:46.137Z,1002.58
2019-02-11T12:12:46.097Z,1002.52
2019-02-11T12:13:46.110Z,1002.61
2019-02-11T12:14:46.084Z,1002.69
2019-02-11T12:15:46.074Z,1002.70
2019-02-11T12:16:57.375Z,1002.69
2019-02-11T12:17:47.049Z,1002.73
2019-02-11T12:18:46.116Z,1002.72
2019-02-11T12:19:46.033Z,1002.73
2019-02-11T12:20:46.021Z,1002.71
2019-02-11T12:21:46.003Z,1002.83
2019-02-11T12:22:46.006Z,1002.79
2019-02-11T12:23:45.979Z,1002.90